Time;durP1;ratioP1;P1;durP2;ratioP2;P2;SDS_P1;SDS_P2;PMS_P1;PMS_P2;Temp;Humidity;BMP_temperature;BMP_pressure;BME280_temperature;BME280_humidity;BME280_pressure;Samples;Min_cycle;Max_cycle;Signal;HPM_P1;HPM_P2
2023/09/12 00:01:08;;;;;;;19.00;5.30;;;;;;;;;;4985131;28;20418;-82
2023/09/12 00:03:35;;;;;;;19.48;4.90;;;;;;;;;;4985686;28;20443;-82
2023/09/12 00:06:03;;;;;;;22.30;5.88;;;;;;;;;;4982915;28;20457;-81
2023/09/12 00:08:30;;;;;;;22.20;5.40;;;;;;;;;;4983003;28;20506;-82
2023/09/12 00:11:02;;;;;;;20.95;5.30;;;;;;;;;;4991808;28;20414;-82
2023/09/12 00:13:29;;;;;;;20.50;4.50;;;;;;;;;;4989912;28;20406;-82
2023/09/12 00:15:56;;;;;;;19.60;5.28;;;;;;;;;;4991771;28;20895;-82
2023/09/12 00:18:26;;;;;;;21.73;5.22;;;;;;;;;;4986078;28;20887;-80
2023/09/12 00:20:53;;;;;;;19.80;5.20;;;;;;;;;;4985757;28;20442;-83
2023/09/12 00:23:21;;;;;;;19.65;5.07;;;;;;;;;;4986003;28;20416;-81
2023/09/12 00:25:48;;;;;;;18.20;5.07;;;;;;;;;;4986108;28;20412;-82
2023/09/12 00:28:16;;;;;;;22.70;5.18;;;;;;;;;;4981877;28;20408;-80
2023/09/12 00:30:43;;;;;;;20.05;5.05;;;;;;;;;;4990213;28;20501;-80
2023/09/12 00:33:09;;;;;;;18.38;4.93;;;;;;;;;;4984615;28;20402;-81
2023/09/12 00:35:36;;;;;;;20.27;5.70;;;;;;;;;;4979902;28;20501;-81
2023/09/12 00:38:03;;;;;;;20.17;5.30;;;;;;;;;;4989943;28;20415;-80
2023/09/12 00:40:30;;;;;;;19.42;4.60;;;;;;;;;;5013615;28;20412;-80
2023/09/12 00:42:56;;;;;;;18.77;5.20;;;;;;;;;;4972979;28;20813;-81
2023/09/12 00:45:25;;;;;;;21.08;5.55;;;;;;;;;;4988742;28;20410;-80
2023/09/12 00:47:52;;;;;;;20.90;5.82;;;;;;;;;;4990327;28;21102;-80
2023/09/12 00:50:20;;;;;;;20.53;5.20;;;;;;;;;;4980657;28;20435;-81
2023/09/12 00:52:47;;;;;;;24.05;7.18;;;;;;;;;;4980086;28;20423;-81
2023/09/12 00:55:14;;;;;;;20.88;5.88;;;;;;;;;;4990380;28;20426;-81
2023/09/12 00:57:41;;;;;;;20.90;6.15;;;;;;;;;;4990447;28;20431;-81
2023/09/12 01:00:11;;;;;;;22.10;6.60;;;;;;;;;;4976875;28;20419;-82
2023/09/12 01:02:39;;;;;;;22.70;6.03;;;;;;;;;;5015491;28;20509;-81
2023/09/12 01:05:07;;;;;;;22.25;6.90;;;;;;;;;;4999181;28;20420;-80
2023/09/12 01:07:34;;;;;;;22.58;7.28;;;;;;;;;;4988838;28;20416;-81
2023/09/12 01:10:01;;;;;;;25.60;6.47;;;;;;;;;;4989128;28;20895;-81
2023/09/12 01:12:28;;;;;;;23.30;6.78;;;;;;;;;;4964304;28;20917;-80
2023/09/12 01:14:55;;;;;;;21.70;6.50;;;;;;;;;;4985351;28;20431;-81
2023/09/12 01:17:21;;;;;;;24.30;7.65;;;;;;;;;;4991359;28;20418;-81
2023/09/12 01:19:50;;;;;;;22.73;7.30;;;;;;;;;;4988734;28;20455;-81
2023/09/12 01:22:31;;;;;;;23.10;6.90;;;;;;;;;;4984920;28;20428;-82
2023/09/12 01:25:13;;;;;;;21.50;6.30;;;;;;;;;;4984152;28;20887;-81
2023/09/12 01:27:44;;;;;;;22.88;7.78;;;;;;;;;;5014600;28;20523;-83
2023/09/12 01:30:12;;;;;;;21.80;7.60;;;;;;;;;;4982108;28;20459;-82
2023/09/12 01:32:39;;;;;;;25.73;8.30;;;;;;;;;;4984021;28;20416;-81
2023/09/12 01:35:08;;;;;;;23.02;6.90;;;;;;;;;;4990239;28;20438;-81
2023/09/12 01:37:35;;;;;;;26.05;7.63;;;;;;;;;;4999531;28;20788;-82
2023/09/12 01:40:03;;;;;;;23.88;7.47;;;;;;;;;;4982026;28;20917;-82
2023/09/12 01:42:31;;;;;;;24.10;7.22;;;;;;;;;;4980624;28;20439;-80
2023/09/12 01:45:00;;;;;;;20.88;6.72;;;;;;;;;;4988703;28;20803;-81
2023/09/12 01:47:28;;;;;;;20.10;6.60;;;;;;;;;;4967903;28;20527;-81
2023/09/12 01:49:56;;;;;;;23.23;7.20;;;;;;;;;;4983765;28;20421;-81
2023/09/12 01:52:24;;;;;;;20.90;6.20;;;;;;;;;;4986834;28;20443;-81
2023/09/12 01:54:52;;;;;;;22.98;7.15;;;;;;;;;;4991117;28;20426;-81
2023/09/12 01:57:22;;;;;;;24.33;7.50;;;;;;;;;;4997251;28;20419;-80
2023/09/12 01:59:49;;;;;;;21.40;7.20;;;;;;;;;;4983622;28;20974;-80
2023/09/12 02:02:17;;;;;;;22.05;6.90;;;;;;;;;;4987688;28;20423;-81
2023/09/12 02:04:47;;;;;;;20.50;5.90;;;;;;;;;;4983129;28;20411;-80
2023/09/12 02:07:14;;;;;;;23.58;6.40;;;;;;;;;;4994056;28;20934;-81
2023/09/12 02:09:41;;;;;;;20.63;6.20;;;;;;;;;;4983673;28;20479;-81
2023/09/12 02:12:08;;;;;;;22.50;6.90;;;;;;;;;;4974403;28;20430;-80
2023/09/12 02:14:36;;;;;;;22.35;6.35;;;;;;;;;;4985864;28;20426;-81
2023/09/12 02:17:02;;;;;;;23.35;6.60;;;;;;;;;;4985862;28;20413;-81
2023/09/12 02:19:30;;;;;;;20.40;6.50;;;;;;;;;;4999877;28;20511;-80
2023/09/12 02:21:57;;;;;;;19.98;5.55;;;;;;;;;;4992633;28;20761;-80
2023/09/12 02:24:24;;;;;;;18.90;5.57;;;;;;;;;;4982867;28;20426;-80
2023/09/12 02:26:51;;;;;;;19.42;6.13;;;;;;;;;;4970721;28;20433;-80
2023/09/12 02:29:17;;;;;;;19.30;5.70;;;;;;;;;;4983131;28;20418;-81
2023/09/12 02:31:44;;;;;;;21.55;5.88;;;;;;;;;;4991050;28;20417;-80
2023/09/12 02:34:11;;;;;;;21.33;6.32;;;;;;;;;;5018175;28;20461;-81
2023/09/12 02:36:39;;;;;;;21.20;6.13;;;;;;;;;;4993820;28;20450;-81
2023/09/12 02:39:06;;;;;;;21.58;6.30;;;;;;;;;;4982876;28;20412;-81
2023/09/12 02:41:33;;;;;;;19.70;5.40;;;;;;;;;;4975825;28;20781;-82
2023/09/12 02:44:00;;;;;;;19.13;5.50;;;;;;;;;;4988001;28;21298;-80
2023/09/12 02:46:27;;;;;;;20.00;5.40;;;;;;;;;;4982620;28;20413;-81
2023/09/12 02:48:53;;;;;;;21.10;5.70;;;;;;;;;;4987611;28;20413;-81
2023/09/12 02:51:20;;;;;;;21.58;6.22;;;;;;;;;;4986799;28;20479;-80
2023/09/12 02:53:48;;;;;;;25.00;6.60;;;;;;;;;;4994569;28;20417;-81
2023/09/12 02:56:15;;;;;;;21.42;6.57;;;;;;;;;;4986842;28;20430;-80
2023/09/12 02:58:42;;;;;;;21.52;6.35;;;;;;;;;;4994158;28;20442;-80
2023/09/12 03:01:13;;;;;;;20.45;6.28;;;;;;;;;;4985299;28;20414;-81
2023/09/12 03:03:40;;;;;;;24.40;7.30;;;;;;;;;;4993544;28;20418;-81
2023/09/12 03:06:07;;;;;;;21.50;7.35;;;;;;;;;;4981698;28;20428;-82
2023/09/12 03:08:34;;;;;;;23.60;8.20;;;;;;;;;;4989173;28;20780;-81
2023/09/12 03:11:02;;;;;;;22.58;7.70;;;;;;;;;;4983659;28;20444;-81
2023/09/12 03:13:29;;;;;;;22.85;7.10;;;;;;;;;;4982441;28;20973;-81
2023/09/12 03:15:56;;;;;;;20.88;7.20;;;;;;;;;;4985353;28;21215;-81
2023/09/12 03:18:22;;;;;;;24.17;7.87;;;;;;;;;;4989149;28;20407;-81
2023/09/12 03:20:49;;;;;;;23.33;7.63;;;;;;;;;;4991118;28;20479;-81
2023/09/12 03:23:16;;;;;;;24.13;7.88;;;;;;;;;;4982017;28;20415;-81
2023/09/12 03:25:43;;;;;;;22.38;6.90;;;;;;;;;;4982086;28;20443;-82
2023/09/12 03:28:11;;;;;;;22.50;6.70;;;;;;;;;;4976374;28;20423;-82
2023/09/12 03:30:38;;;;;;;24.40;7.80;;;;;;;;;;4982051;28;20467;-81
2023/09/12 03:33:06;;;;;;;22.98;7.30;;;;;;;;;;4991109;28;20488;-82
2023/09/12 03:35:34;;;;;;;24.58;7.70;;;;;;;;;;4981725;28;20969;-82
2023/09/12 03:38:02;;;;;;;22.30;6.80;;;;;;;;;;4985432;28;20521;-81
2023/09/12 03:40:30;;;;;;;22.53;7.03;;;;;;;;;;5001961;28;20436;-81
2023/09/12 03:42:57;;;;;;;21.93;6.60;;;;;;;;;;4992678;28;20426;-81
2023/09/12 03:45:25;;;;;;;20.05;7.07;;;;;;;;;;4987214;28;20416;-81
2023/09/12 03:47:52;;;;;;;22.02;7.35;;;;;;;;;;4991816;28;20429;-82
2023/09/12 03:50:19;;;;;;;21.20;7.00;;;;;;;;;;4965000;28;20446;-81
2023/09/12 03:52:46;;;;;;;20.50;6.80;;;;;;;;;;4981384;28;20769;-80
2023/09/12 03:55:13;;;;;;;20.85;7.32;;;;;;;;;;4991668;28;20426;-81
2023/09/12 03:57:40;;;;;;;20.95;6.90;;;;;;;;;;4991373;28;20907;-81
2023/09/12 04:00:08;;;;;;;21.15;6.60;;;;;;;;;;4990845;28;20412;-82
2023/09/12 04:02:45;;;;;;;22.55;6.78;;;;;;;;;;4986396;28;20420;-81
2023/09/12 04:05:11;;;;;;;21.30;6.80;;;;;;;;;;4984886;28;20758;-81
2023/09/12 04:07:38;;;;;;;19.77;5.63;;;;;;;;;;4988861;28;20476;-81
2023/09/12 04:10:05;;;;;;;22.48;5.53;;;;;;;;;;4990641;28;20434;-81
2023/09/12 04:12:32;;;;;;;21.48;6.30;;;;;;;;;;5015600;28;20425;-81
2023/09/12 04:14:59;;;;;;;20.58;6.43;;;;;;;;;;4985798;28;20432;-81
2023/09/12 04:17:25;;;;;;;19.15;5.45;;;;;;;;;;4987908;28;20911;-81
2023/09/12 04:19:53;;;;;;;21.55;5.68;;;;;;;;;;4991910;28;20412;-81
2023/09/12 04:22:20;;;;;;;19.35;5.88;;;;;;;;;;4980698;28;20416;-80
2023/09/12 04:24:49;;;;;;;22.83;6.43;;;;;;;;;;4981253;28;20525;-81
2023/09/12 04:27:16;;;;;;;20.83;5.93;;;;;;;;;;4986467;28;20434;-81
2023/09/12 04:29:43;;;;;;;24.30;6.18;;;;;;;;;;4982304;28;20790;-81
2023/09/12 04:32:10;;;;;;;19.48;5.30;;;;;;;;;;4991870;28;20858;-81
2023/09/12 04:34:38;;;;;;;18.70;5.28;;;;;;;;;;4980595;28;20426;-80
2023/09/12 04:37:07;;;;;;;19.95;5.85;;;;;;;;;;4991740;28;20426;-81
2023/09/12 04:39:34;;;;;;;18.43;5.20;;;;;;;;;;4980446;28;20514;-81
2023/09/12 04:42:01;;;;;;;21.08;5.05;;;;;;;;;;4990232;28;20414;-81
2023/09/12 04:44:28;;;;;;;21.67;5.35;;;;;;;;;;4991824;28;20480;-81
2023/09/12 04:46:54;;;;;;;18.20;4.55;;;;;;;;;;5001447;28;20414;-81
2023/09/12 04:49:21;;;;;;;20.17;5.10;;;;;;;;;;4984485;28;20761;-81
2023/09/12 04:51:47;;;;;;;19.42;5.43;;;;;;;;;;4981225;28;20435;-81
2023/09/12 04:54:16;;;;;;;18.13;4.97;;;;;;;;;;4989320;28;20482;-82
2023/09/12 04:56:42;;;;;;;20.02;5.63;;;;;;;;;;4983560;28;20431;-82
2023/09/12 04:59:09;;;;;;;19.50;4.70;;;;;;;;;;5016956;28;20422;-83
2023/09/12 05:01:36;;;;;;;20.85;5.13;;;;;;;;;;4974240;28;20418;-83
2023/09/12 05:04:03;;;;;;;18.42;4.70;;;;;;;;;;4991120;28;20427;-82
2023/09/12 05:06:30;;;;;;;18.58;4.90;;;;;;;;;;4984033;28;20417;-82
2023/09/12 05:08:57;;;;;;;19.98;5.45;;;;;;;;;;4988615;28;20418;-83
2023/09/12 05:11:25;;;;;;;20.92;4.85;;;;;;;;;;4983749;28;20904;-84
2023/09/12 05:13:52;;;;;;;18.40;5.00;;;;;;;;;;4980973;28;20442;-84
2023/09/12 05:16:19;;;;;;;21.00;5.47;;;;;;;;;;4984009;28;20418;-84
2023/09/12 05:18:46;;;;;;;20.65;5.00;;;;;;;;;;4974964;28;20448;-83
2023/09/12 05:21:13;;;;;;;20.88;5.45;;;;;;;;;;4988969;28;20506;-83
2023/09/12 05:23:39;;;;;;;18.05;5.00;;;;;;;;;;4988528;28;20443;-84
2023/09/12 05:26:07;;;;;;;19.83;5.32;;;;;;;;;;4990756;28;20453;-84
2023/09/12 05:28:35;;;;;;;19.57;6.30;;;;;;;;;;4985887;28;20443;-84
2023/09/12 05:31:02;;;;;;;20.80;5.60;;;;;;;;;;4988291;28;21003;-87
2023/09/12 05:33:29;;;;;;;22.23;6.18;;;;;;;;;;4981391;28;20424;-87
2023/09/12 05:35:59;;;;;;;23.67;6.00;;;;;;;;;;4984340;28;20429;-87
2023/09/12 05:38:27;;;;;;;24.50;5.67;;;;;;;;;;4988355;28;20420;-86
2023/09/12 05:40:54;;;;;;;22.02;5.38;;;;;;;;;;4990950;28;20512;-83
2023/09/12 05:43:21;;;;;;;19.05;5.10;;;;;;;;;;4994322;28;20450;-86
2023/09/12 05:45:49;;;;;;;19.40;5.10;;;;;;;;;;5007762;28;20439;-85
2023/09/12 05:48:16;;;;;;;17.98;5.03;;;;;;;;;;4984877;28;20420;-85
2023/09/12 05:50:42;;;;;;;19.95;5.20;;;;;;;;;;4971123;28;20818;-84
2023/09/12 05:53:09;;;;;;;19.73;5.03;;;;;;;;;;4992353;28;20785;-83
2023/09/12 05:55:36;;;;;;;21.65;5.30;;;;;;;;;;4994109;28;20915;-84
2023/09/12 05:58:05;;;;;;;20.00;4.88;;;;;;;;;;4994103;28;20778;-82
2023/09/12 06:00:34;;;;;;;19.00;4.40;;;;;;;;;;4985165;28;20509;-83
2023/09/12 06:03:02;;;;;;;20.42;4.85;;;;;;;;;;4989331;28;20425;-82
2023/09/12 06:05:30;;;;;;;21.27;4.80;;;;;;;;;;4982410;28;20486;-82
2023/09/12 06:07:56;;;;;;;19.20;4.90;;;;;;;;;;4989555;28;20899;-83
2023/09/12 06:10:23;;;;;;;19.57;4.40;;;;;;;;;;4984450;28;20419;-83
2023/09/12 06:12:51;;;;;;;20.38;4.18;;;;;;;;;;4987272;28;20876;-83
2023/09/12 06:15:17;;;;;;;18.40;4.70;;;;;;;;;;4985796;28;20872;-83
2023/09/12 06:17:44;;;;;;;20.15;5.68;;;;;;;;;;4992924;28;20581;-81
2023/09/12 06:20:13;;;;;;;21.52;6.32;;;;;;;;;;4990734;28;20760;-84
2023/09/12 06:22:39;;;;;;;21.77;6.00;;;;;;;;;;4985399;28;20407;-83
2023/09/12 06:25:07;;;;;;;21.58;6.78;;;;;;;;;;4992300;28;20461;-83
2023/09/12 06:27:33;;;;;;;23.80;7.70;;;;;;;;;;4986799;28;20404;-83
2023/09/12 06:30:00;;;;;;;23.77;8.30;;;;;;;;;;4974609;28;20416;-82
2023/09/12 06:32:27;;;;;;;22.17;7.88;;;;;;;;;;4987550;28;21108;-83
2023/09/12 06:34:54;;;;;;;24.77;8.98;;;;;;;;;;4993319;28;20426;-83
2023/09/12 06:37:22;;;;;;;25.27;8.80;;;;;;;;;;4986131;28;20501;-83
2023/09/12 06:39:49;;;;;;;23.45;8.25;;;;;;;;;;4983701;28;20418;-83
2023/09/12 06:42:16;;;;;;;24.52;8.55;;;;;;;;;;4982925;28;20420;-82
2023/09/12 06:44:43;;;;;;;24.30;7.95;;;;;;;;;;4984414;28;20415;-82
2023/09/12 06:47:10;;;;;;;25.20;8.80;;;;;;;;;;4983976;28;20505;-82
2023/09/12 06:49:37;;;;;;;23.70;9.05;;;;;;;;;;4965818;28;20417;-81
2023/09/12 06:52:04;;;;;;;25.70;8.50;;;;;;;;;;4991720;28;20443;-83
2023/09/12 06:54:33;;;;;;;26.35;9.95;;;;;;;;;;4993385;28;20406;-82
2023/09/12 06:57:00;;;;;;;26.88;8.23;;;;;;;;;;4998778;28;20786;-82
2023/09/12 06:59:27;;;;;;;26.10;8.85;;;;;;;;;;4983129;28;20420;-83
2023/09/12 07:01:53;;;;;;;24.38;9.13;;;;;;;;;;4989701;28;20841;-82
2023/09/12 07:04:20;;;;;;;27.20;10.10;;;;;;;;;;4989901;28;20569;-82
2023/09/12 07:06:47;;;;;;;24.33;8.90;;;;;;;;;;4984918;28;20469;-82
2023/09/12 07:09:14;;;;;;;24.02;8.85;;;;;;;;;;4983214;28;20893;-82
2023/09/12 07:11:43;;;;;;;23.23;7.72;;;;;;;;;;4992115;28;20424;-83
2023/09/12 07:14:10;;;;;;;20.40;7.28;;;;;;;;;;4989619;28;20904;-83
2023/09/12 07:16:36;;;;;;;23.25;7.78;;;;;;;;;;4969699;28;20432;-83
2023/09/12 07:19:03;;;;;;;22.55;8.07;;;;;;;;;;4982854;28;20818;-81
2023/09/12 07:21:31;;;;;;;21.58;7.22;;;;;;;;;;4973615;28;20420;-81
2023/09/12 07:23:57;;;;;;;21.88;7.32;;;;;;;;;;4985959;28;20414;-82
2023/09/12 07:26:24;;;;;;;22.57;6.73;;;;;;;;;;4981742;28;20414;-82
2023/09/12 07:28:55;;;;;;;21.52;7.40;;;;;;;;;;4984867;28;20919;-82
2023/09/12 07:31:22;;;;;;;22.23;6.38;;;;;;;;;;4981772;28;20429;-82
2023/09/12 07:33:48;;;;;;;21.33;6.25;;;;;;;;;;4992157;28;20865;-83
2023/09/12 07:36:15;;;;;;;19.80;5.82;;;;;;;;;;4983045;28;20479;-84
2023/09/12 07:38:45;;;;;;;21.30;5.95;;;;;;;;;;4969626;28;20420;-82
2023/09/12 07:41:12;;;;;;;17.88;5.00;;;;;;;;;;4986117;28;20414;-79
2023/09/12 07:43:38;;;;;;;19.20;5.35;;;;;;;;;;4989255;28;20431;-83
2023/09/12 07:46:06;;;;;;;20.70;5.07;;;;;;;;;;4991063;28;20521;-81
2023/09/12 07:48:33;;;;;;;21.20;5.35;;;;;;;;;;4997763;28;20759;-83
2023/09/12 07:51:00;;;;;;;20.60;5.30;;;;;;;;;;4984633;28;20886;-81
2023/09/12 07:53:27;;;;;;;18.75;4.90;;;;;;;;;;4981363;28;20412;-81
2023/09/12 07:55:54;;;;;;;19.50;4.72;;;;;;;;;;4967116;28;20839;-82
2023/09/12 07:58:23;;;;;;;19.35;4.95;;;;;;;;;;4984663;28;20783;-82
2023/09/12 08:00:50;;;;;;;19.45;4.75;;;;;;;;;;4985383;28;20416;-81
2023/09/12 08:03:18;;;;;;;18.10;4.37;;;;;;;;;;5002271;28;20439;-81
2023/09/12 08:05:53;;;;;;;20.70;4.80;;;;;;;;;;4982066;28;20495;-80
2023/09/12 08:08:21;;;;;;;18.60;4.50;;;;;;;;;;4981475;28;20408;-81
2023/09/12 08:10:48;;;;;;;21.23;4.53;;;;;;;;;;4991061;28;20900;-80
2023/09/12 08:13:15;;;;;;;20.30;4.95;;;;;;;;;;4990152;28;20425;-81
2023/09/12 08:15:41;;;;;;;19.08;4.40;;;;;;;;;;4982740;28;20911;-81
2023/09/12 08:18:08;;;;;;;18.00;4.50;;;;;;;;;;4991033;28;20530;-81
2023/09/12 08:20:37;;;;;;;18.48;4.63;;;;;;;;;;4980246;28;20419;-79
2023/09/12 08:23:04;;;;;;;17.65;4.03;;;;;;;;;;4982470;28;20468;-81
2023/09/12 08:25:30;;;;;;;19.40;4.07;;;;;;;;;;4991672;28;20469;-80
2023/09/12 08:27:57;;;;;;;17.92;4.20;;;;;;;;;;4981264;28;20416;-80
2023/09/12 08:30:25;;;;;;;;;;;;;;;;;;4990146;28;20050;-81
2023/09/12 08:32:51;;;;;;;;;;;;;;;;;;4985310;28;19921;-80
2023/09/12 08:35:18;;;;;;;;;;;;;;;;;;4996760;28;20264;-81
2023/09/12 08:37:45;;;;;;;;;;;;;;;;;;5013297;28;19926;-82
2023/09/12 08:40:12;;;;;;;;;;;;;;;;;;4985601;28;20292;-80
2023/09/12 08:42:39;;;;;;;;;;;;;;;;;;5016923;28;19973;-81
2023/09/12 08:45:06;;;;;;;;;;;;;;;;;;4985458;28;19961;-80
2023/09/12 08:47:32;;;;;;;;;;;;;;;;;;4985317;28;19935;-80
2023/09/12 08:49:58;;;;;;;;;;;;;;;;;;4985757;28;20299;-81
2023/09/12 08:52:25;;;;;;;;;;;;;;;;;;4984231;28;19929;-80
2023/09/12 08:54:53;;;;;;;17.40;4.43;;;;;;;;;;5015815;28;20698;-80
2023/09/12 08:57:20;;;;;;;20.20;4.00;;;;;;;;;;4972793;28;20434;-80
2023/09/12 08:59:48;;;;;;;18.60;4.50;;;;;;;;;;4987135;28;20406;-80
2023/09/12 09:02:15;;;;;;;16.88;4.10;;;;;;;;;;4975584;28;20422;-81
2023/09/12 09:04:42;;;;;;;18.52;4.40;;;;;;;;;;4983834;28;20501;-81
2023/09/12 09:07:10;;;;;;;18.02;4.38;;;;;;;;;;4991148;28;20434;-81
2023/09/12 09:09:37;;;;;;;19.67;4.60;;;;;;;;;;4984652;28;20438;-81
2023/09/12 09:12:08;;;;;;;18.50;4.55;;;;;;;;;;4984109;28;20433;-81
2023/09/12 09:14:35;;;;;;;17.77;4.47;;;;;;;;;;4987303;28;20502;-81
2023/09/12 09:17:02;;;;;;;20.50;4.50;;;;;;;;;;4988246;28;20414;-80
2023/09/12 09:19:39;;;;;;;16.90;3.90;;;;;;;;;;4987402;28;20415;-80
2023/09/12 09:22:06;;;;;;;16.60;4.10;;;;;;;;;;4990165;28;20409;-80
2023/09/12 09:24:33;;;;;;;17.20;3.90;;;;;;;;;;4991610;28;20458;-82
2023/09/12 09:27:00;;;;;;;18.13;3.78;;;;;;;;;;4988457;28;20420;-82
2023/09/12 09:29:33;;;;;;;18.48;3.90;;;;;;;;;;4986341;28;20405;-82
2023/09/12 09:32:01;;;;;;;17.80;4.10;;;;;;;;;;5008618;28;20503;-81
2023/09/12 09:34:29;;;;;;;17.52;4.07;;;;;;;;;;4990090;28;20414;-82
2023/09/12 09:36:59;;;;;;;18.02;4.10;;;;;;;;;;4994672;28;20422;-82
2023/09/12 09:39:28;;;;;;;19.80;4.10;;;;;;;;;;4985356;28;20510;-81
2023/09/12 09:41:56;;;;;;;17.77;3.97;;;;;;;;;;4994407;28;20422;-81
2023/09/12 09:44:26;;;;;;;20.00;4.40;;;;;;;;;;4982813;28;20480;-80
2023/09/12 09:46:58;;;;;;;17.52;3.90;;;;;;;;;;4991295;28;20443;-81
2023/09/12 09:49:25;;;;;;;17.42;4.40;;;;;;;;;;5019769;28;20448;-79
2023/09/12 09:51:54;;;;;;;17.63;4.13;;;;;;;;;;5019568;28;20431;-79
2023/09/12 09:54:23;;;;;;;16.98;3.40;;;;;;;;;;4984516;28;20873;-82
2023/09/12 09:56:52;;;;;;;18.00;4.40;;;;;;;;;;4984506;28;20437;-80
2023/09/12 09:59:21;;;;;;;17.47;3.70;;;;;;;;;;4987164;28;20787;-82
2023/09/12 10:01:48;;;;;;;17.95;3.50;;;;;;;;;;4987940;28;20888;-82
2023/09/12 10:04:17;;;;;;;16.73;3.60;;;;;;;;;;4987631;28;20415;-81
2023/09/12 10:06:45;;;;;;;16.38;3.08;;;;;;;;;;4984546;28;20821;-84
2023/09/12 10:09:13;;;;;;;16.10;2.83;;;;;;;;;;4991629;28;20415;-80
2023/09/12 10:11:40;;;;;;;19.10;3.20;;;;;;;;;;4997272;28;20427;-81
2023/09/12 10:14:07;;;;;;;16.17;3.35;;;;;;;;;;4987002;28;20495;-83
2023/09/12 10:16:34;;;;;;;15.67;2.67;;;;;;;;;;4988198;28;20476;-84
2023/09/12 10:19:07;;;;;;;16.47;3.90;;;;;;;;;;4986345;28;20434;-80
2023/09/12 10:21:35;;;;;;;17.58;4.10;;;;;;;;;;4987547;28;20414;-81
2023/09/12 10:24:03;;;;;;;18.58;4.00;;;;;;;;;;4992263;28;20421;-81
2023/09/12 10:26:31;;;;;;;17.73;4.18;;;;;;;;;;4992026;28;20806;-81
2023/09/12 10:28:57;;;;;;;16.85;3.63;;;;;;;;;;4966607;28;21041;-81
2023/09/12 10:31:25;;;;;;;17.10;3.60;;;;;;;;;;4988216;28;20752;-79
2023/09/12 10:33:55;;;;;;;16.50;3.30;;;;;;;;;;4990648;28;20428;-80
2023/09/12 10:36:22;;;;;;;16.60;3.90;;;;;;;;;;4992370;28;20427;-80
2023/09/12 10:38:51;;;;;;;16.10;3.50;;;;;;;;;;4992532;28;20440;-79
2023/09/12 10:41:19;;;;;;;16.73;4.10;;;;;;;;;;4986534;28;20406;-81
2023/09/12 10:43:50;;;;;;;16.47;3.40;;;;;;;;;;5001295;28;20514;-79
2023/09/12 10:46:17;;;;;;;17.83;4.20;;;;;;;;;;4993211;28;20460;-80
2023/09/12 10:48:44;;;;;;;16.90;3.50;;;;;;;;;;4975569;28;20967;-80
2023/09/12 10:51:13;;;;;;;16.88;3.13;;;;;;;;;;4985964;28;20410;-80
2023/09/12 10:53:45;;;;;;;16.50;3.50;;;;;;;;;;4983437;28;20462;-80
2023/09/12 10:56:18;;;;;;;16.38;3.50;;;;;;;;;;5015449;28;20420;-79
2023/09/12 10:59:04;;;;;;;18.27;3.90;;;;;;;;;;5002303;28;20947;-79
2023/09/12 11:01:31;;;;;;;17.50;3.38;;;;;;;;;;5002011;28;20411;-80
2023/09/12 11:03:58;;;;;;;17.10;3.30;;;;;;;;;;4987101;28;20433;-80
2023/09/12 11:06:28;;;;;;;18.00;3.42;;;;;;;;;;4983268;28;20443;-79
2023/09/12 11:09:14;;;;;;;17.20;3.90;;;;;;;;;;4983191;28;20411;-79
2023/09/12 11:11:42;;;;;;;17.83;3.80;;;;;;;;;;4982776;28;20411;-79
2023/09/12 11:14:09;;;;;;;20.40;3.30;;;;;;;;;;4992438;28;20414;-78
2023/09/12 11:16:36;;;;;;;16.60;3.60;;;;;;;;;;4991029;28;20456;-79
2023/09/12 11:19:14;;;;;;;16.27;3.15;;;;;;;;;;4989519;28;20428;-79
2023/09/12 11:21:40;;;;;;;15.80;2.93;;;;;;;;;;4980361;28;20431;-79
2023/09/12 11:24:07;;;;;;;16.42;3.72;;;;;;;;;;4985405;28;20406;-79
2023/09/12 11:26:34;;;;;;;17.10;3.45;;;;;;;;;;4987098;28;20436;-78
2023/09/12 11:29:12;;;;;;;16.77;3.60;;;;;;;;;;4983994;28;20406;-80
2023/09/12 11:31:42;;;;;;;17.40;3.97;;;;;;;;;;4987962;28;20414;-79
2023/09/12 11:34:09;;;;;;;16.20;3.65;;;;;;;;;;4985000;28;21030;-80
2023/09/12 11:36:40;;;;;;;17.70;3.30;;;;;;;;;;4986574;28;20498;-78
2023/09/12 11:39:22;;;;;;;16.67;3.40;;;;;;;;;;4984928;28;20437;-79
2023/09/12 11:41:49;;;;;;;18.10;3.95;;;;;;;;;;4983319;28;20414;-79
2023/09/12 11:44:17;;;;;;;17.80;3.92;;;;;;;;;;4981254;28;20483;-79
2023/09/12 11:46:46;;;;;;;16.35;3.38;;;;;;;;;;4981274;28;20415;-79
2023/09/12 11:49:13;;;;;;;17.00;3.33;;;;;;;;;;4982624;28;20415;-80
2023/09/12 11:51:46;;;;;;;16.15;3.45;;;;;;;;;;4988305;28;20417;-79
2023/09/12 11:54:14;;;;;;;16.52;4.25;;;;;;;;;;4992016;28;20423;-80
2023/09/12 11:56:40;;;;;;;16.50;3.40;;;;;;;;;;4981130;28;20419;-80
2023/09/12 11:59:18;;;;;;;16.40;3.70;;;;;;;;;;5102039;27;20401;-79
2023/09/12 12:01:48;;;;;;;15.98;3.08;;;;;;;;;;5084654;28;20498;-79
2023/09/12 12:04:15;;;;;;;17.50;4.03;;;;;;;;;;5098373;28;20403;-79
2023/09/12 12:06:43;;;;;;;17.05;4.00;;;;;;;;;;5094512;28;20461;-79
2023/09/12 12:09:11;;;;;;;17.13;4.10;;;;;;;;;;5098882;28;20442;-78
2023/09/12 12:11:38;;;;;;;19.17;4.50;;;;;;;;;;5098745;28;20403;-79
2023/09/12 12:14:09;;;;;;;16.13;3.13;;;;;;;;;;5099895;28;20419;-77
2023/09/12 12:16:37;;;;;;;16.35;3.40;;;;;;;;;;5097596;28;20767;-80
2023/09/12 12:19:04;;;;;;;17.38;3.85;;;;;;;;;;5097103;28;20421;-79
2023/09/12 12:21:31;;;;;;;16.30;3.30;;;;;;;;;;5101513;28;20405;-79
2023/09/12 12:24:01;;;;;;;16.70;2.90;;;;;;;;;;5096188;28;20457;-78
2023/09/12 12:26:28;;;;;;;17.67;3.80;;;;;;;;;;5097585;28;20413;-78
2023/09/12 12:28:54;;;;;;;16.10;3.30;;;;;;;;;;5100312;28;20949;-79
2023/09/12 12:31:24;;;;;;;16.77;3.45;;;;;;;;;;5099045;28;20454;-78
2023/09/12 12:33:54;;;;;;;16.67;3.40;;;;;;;;;;5095192;28;20477;-80
2023/09/12 12:36:41;;;;;;;17.40;3.70;;;;;;;;;;5097892;28;20778;-80
2023/09/12 12:39:20;;;;;;;18.20;3.60;;;;;;;;;;5087147;28;20421;-79
2023/09/12 12:41:47;;;;;;;16.67;3.30;;;;;;;;;;5094882;28;20419;-79
2023/09/12 12:44:17;;;;;;;16.30;3.47;;;;;;;;;;5097645;28;20894;-78
2023/09/12 12:46:48;;;;;;;15.57;3.00;;;;;;;;;;5099357;28;20406;-78
2023/09/12 12:49:16;;;;;;;16.92;4.00;;;;;;;;;;5098448;28;20395;-80
2023/09/12 12:51:43;;;;;;;16.27;3.30;;;;;;;;;;5078481;28;20837;-79
2023/09/12 12:54:09;;;;;;;16.30;2.90;;;;;;;;;;5081292;28;20402;-78
2023/09/12 12:56:37;;;;;;;16.83;3.53;;;;;;;;;;5098617;28;20452;-79
2023/09/12 12:59:06;;;;;;;16.30;2.95;;;;;;;;;;5114335;28;20445;-79
2023/09/12 13:01:34;;;;;;;16.70;3.50;;;;;;;;;;5116741;28;20404;-79
2023/09/12 13:04:01;;;;;;;16.30;3.47;;;;;;;;;;5115964;28;20402;-79
2023/09/12 13:06:30;;;;;;;16.40;3.42;;;;;;;;;;5115293;28;20395;-79
2023/09/12 13:08:59;;;;;;;19.40;3.50;;;;;;;;;;5113705;28;20866;-80
2023/09/12 13:11:26;;;;;;;17.52;3.70;;;;;;;;;;5102115;28;20938;-79
2023/09/12 13:13:53;;;;;;;16.50;3.30;;;;;;;;;;5086504;28;20401;-81
2023/09/12 13:16:20;;;;;;;18.07;3.80;;;;;;;;;;5103486;28;20402;-80
2023/09/12 13:18:46;;;;;;;17.35;3.60;;;;;;;;;;5113718;27;20963;-78
2023/09/12 13:21:13;;;;;;;16.70;3.67;;;;;;;;;;5104085;28;20399;-79
2023/09/12 13:23:41;;;;;;;15.63;3.20;;;;;;;;;;5103074;28;20424;-79
2023/09/12 13:26:09;;;;;;;18.13;3.50;;;;;;;;;;5087141;28;20466;-79
2023/09/12 13:28:36;;;;;;;16.20;3.20;;;;;;;;;;5104231;28;20400;-79
2023/09/12 13:31:03;;;;;;;15.77;3.25;;;;;;;;;;5089473;28;20804;-79
2023/09/12 13:33:30;;;;;;;17.00;3.40;;;;;;;;;;5106174;28;20797;-79
2023/09/12 13:35:57;;;;;;;16.60;3.20;;;;;;;;;;5085075;28;20774;-79
2023/09/12 13:38:23;;;;;;;16.67;3.42;;;;;;;;;;5102270;28;20881;-79
2023/09/12 13:40:51;;;;;;;16.20;2.78;;;;;;;;;;5082732;28;20567;-80
2023/09/12 13:43:18;;;;;;;17.40;3.50;;;;;;;;;;5101396;28;20448;-79
2023/09/12 13:45:45;;;;;;;15.40;3.07;;;;;;;;;;5103287;28;20504;-79
2023/09/12 13:48:13;;;;;;;17.20;3.60;;;;;;;;;;5102040;28;20452;-79
2023/09/12 13:50:42;;;;;;;15.55;2.97;;;;;;;;;;5104382;28;20495;-78
2023/09/12 13:53:09;;;;;;;16.15;3.17;;;;;;;;;;5103016;28;20517;-79
2023/09/12 13:55:37;;;;;;;16.13;2.97;;;;;;;;;;5101558;28;20409;-79
2023/09/12 13:58:25;;;;;;;15.20;3.15;;;;;;;;;;5100424;28;20419;-79
2023/09/12 14:00:58;;;;;;;16.63;3.33;;;;;;;;;;5101652;28;20412;-79
2023/09/12 14:03:25;;;;;;;15.45;2.90;;;;;;;;;;5102691;28;20827;-79
2023/09/12 14:05:55;;;;;;;16.38;3.10;;;;;;;;;;5099481;28;20947;-79
2023/09/12 14:08:23;;;;;;;15.52;2.80;;;;;;;;;;5103924;28;20396;-79
2023/09/12 14:10:50;;;;;;;15.25;2.85;;;;;;;;;;5101451;28;20752;-79
2023/09/12 14:13:17;;;;;;;15.57;3.10;;;;;;;;;;5085213;28;20880;-79
2023/09/12 14:15:52;;;;;;;15.32;3.08;;;;;;;;;;5098993;28;20478;-80
2023/09/12 14:18:20;;;;;;;15.88;2.80;;;;;;;;;;5102239;28;20896;-78
2023/09/12 14:20:48;;;;;;;15.25;2.58;;;;;;;;;;5087904;28;20493;-80
2023/09/12 14:23:16;;;;;;;17.20;3.20;;;;;;;;;;5103487;28;20400;-79
2023/09/12 14:25:43;;;;;;;15.83;3.13;;;;;;;;;;5102031;28;20420;-78
2023/09/12 14:28:12;;;;;;;16.02;2.92;;;;;;;;;;5102261;28;20491;-80
2023/09/12 14:30:44;;;;;;;19.77;2.92;;;;;;;;;;5099482;28;20415;-80
2023/09/12 14:33:13;;;;;;;16.42;3.38;;;;;;;;;;5103751;28;20462;-80
2023/09/12 14:35:44;;;;;;;16.85;3.42;;;;;;;;;;5103521;28;20409;-80
2023/09/12 14:38:10;;;;;;;16.50;2.90;;;;;;;;;;5102711;28;20979;-80